Time;durP1;ratioP1;P1;durP2;ratioP2;P2;SDS_P1;SDS_P2;PMS_P1;PMS_P2;Temp;Humidity;BMP_temperature;BMP_pressure;BME280_temperature;BME280_humidity;BME280_pressure;Samples;Min_cycle;Max_cycle;Signal;HPM_P1;HPM_P2
2022/04/12 00:00:09;;;;;;;11.00;7.78;;;;;;;;;;5012080;28;94612;-74
2022/04/12 00:02:39;;;;;;;9.48;8.00;;;;;;;;;;5014614;28;92429;-74
2022/04/12 00:05:06;;;;;;;10.82;8.02;;;;;;;;;;5012403;28;94710;-74
2022/04/12 00:07:53;;;;;;;9.10;7.95;;;;;;;;;;5013842;28;94481;-74
2022/04/12 00:10:19;;;;;;;7.60;6.93;;;;;;;;;;5013273;28;92538;-74
2022/04/12 00:12:46;;;;;;;9.50;8.50;;;;;;;;;;5009278;28;95060;-74
2022/04/12 00:15:13;;;;;;;10.85;7.38;;;;;;;;;;5001934;28;93560;-74
2022/04/12 00:20:26;;;;;;;8.00;7.30;;;;;;;;;;5010210;28;94031;-74
2022/04/12 00:22:53;;;;;;;11.73;7.63;;;;;;;;;;5013007;28;94908;-74
2022/04/12 00:25:22;;;;;;;12.35;7.30;;;;;;;;;;5012005;28;96401;-74
2022/04/12 00:27:49;;;;;;;9.73;7.30;;;;;;;;;;5013393;28;93006;-74
2022/04/12 00:30:15;;;;;;;8.75;7.55;;;;;;;;;;5010999;28;92938;-74
2022/04/12 00:32:42;;;;;;;10.13;7.68;;;;;;;;;;5014139;28;93691;-74
2022/04/12 00:35:08;;;;;;;9.80;8.27;;;;;;;;;;5011338;28;94153;-74
2022/04/12 00:37:35;;;;;;;10.70;8.13;;;;;;;;;;5014049;28;92431;-74
2022/04/12 00:40:01;;;;;;;9.32;7.72;;;;;;;;;;5013284;28;92987;-74
2022/04/12 00:42:28;;;;;;;12.48;7.25;;;;;;;;;;5016144;28;94177;-74
2022/04/12 00:44:54;;;;;;;8.30;7.00;;;;;;;;;;5012689;28;94337;-74
2022/04/12 00:47:20;;;;;;;7.85;6.80;;;;;;;;;;5012470;28;96556;-74
2022/04/12 00:49:47;;;;;;;11.80;7.57;;;;;;;;;;5012023;28;93082;-74
2022/04/12 00:52:14;;;;;;;9.75;7.57;;;;;;;;;;5014152;28;93973;-74
2022/04/12 00:54:42;;;;;;;12.25;7.97;;;;;;;;;;5011709;28;93140;-75
2022/04/12 00:57:08;;;;;;;10.57;7.50;;;;;;;;;;5013667;28;92570;-75
2022/04/12 00:59:35;;;;;;;11.98;7.22;;;;;;;;;;5013085;28;94143;-75
2022/04/12 01:02:03;;;;;;;7.50;6.53;;;;;;;;;;5013789;28;94219;-75
2022/04/12 01:04:30;;;;;;;12.93;8.05;;;;;;;;;;5015543;28;91811;-75
2022/04/12 01:06:56;;;;;;;6.65;5.93;;;;;;;;;;5013489;28;94125;-75
2022/04/12 01:09:26;;;;;;;7.28;6.55;;;;;;;;;;5012202;28;93887;-75
2022/04/12 01:11:53;;;;;;;12.68;7.97;;;;;;;;;;5007574;28;95373;-75
2022/04/12 01:14:19;;;;;;;9.63;7.53;;;;;;;;;;4997900;28;93208;-75
2022/04/12 01:16:46;;;;;;;9.60;7.25;;;;;;;;;;4996865;28;92493;-75
2022/04/12 01:19:12;;;;;;;8.27;6.85;;;;;;;;;;4996858;28;93904;-75
2022/04/12 01:21:42;;;;;;;12.25;7.43;;;;;;;;;;5013208;28;94071;-75
2022/04/12 01:24:08;;;;;;;7.75;7.05;;;;;;;;;;5010922;28;94890;-75
2022/04/12 01:26:35;;;;;;;7.75;7.03;;;;;;;;;;5016328;28;93250;-75
2022/04/12 01:29:01;;;;;;;8.25;7.18;;;;;;;;;;5012505;28;92050;-75
2022/04/12 01:31:27;;;;;;;10.35;7.05;;;;;;;;;;5012628;28;92464;-75
2022/04/12 01:33:54;;;;;;;8.95;7.57;;;;;;;;;;5011919;28;94739;-75
2022/04/12 01:36:20;;;;;;;13.13;7.13;;;;;;;;;;5011862;28;94813;-75
2022/04/12 01:38:47;;;;;;;12.40;8.07;;;;;;;;;;5010334;28;96325;-75
2022/04/12 01:41:13;;;;;;;8.20;7.40;;;;;;;;;;5013120;28;94207;-75
2022/04/12 01:43:40;;;;;;;8.77;7.88;;;;;;;;;;5012077;28;92565;-75
2022/04/12 01:46:06;;;;;;;8.13;7.28;;;;;;;;;;5012076;28;94110;-75
2022/04/12 01:48:34;;;;;;;11.80;7.22;;;;;;;;;;5016016;28;93062;-75
2022/04/12 01:51:00;;;;;;;11.85;7.80;;;;;;;;;;5011873;28;93960;-75
2022/04/12 01:53:27;;;;;;;12.35;7.35;;;;;;;;;;5012346;28;92767;-75
2022/04/12 01:55:53;;;;;;;9.07;8.27;;;;;;;;;;5010540;28;92443;-75
2022/04/12 01:58:19;;;;;;;8.07;7.35;;;;;;;;;;5009116;28;93844;-75
2022/04/12 02:00:47;;;;;;;9.50;7.32;;;;;;;;;;4998901;28;96458;-75
2022/04/12 02:03:13;;;;;;;8.88;7.05;;;;;;;;;;4993141;28;93369;-75
2022/04/12 02:05:40;;;;;;;10.25;7.63;;;;;;;;;;5008268;28;93529;-75
2022/04/12 02:08:07;;;;;;;11.82;7.85;;;;;;;;;;5015076;28;93153;-75
2022/04/12 02:10:34;;;;;;;9.55;8.27;;;;;;;;;;5008286;28;93160;-75
2022/04/12 02:13:00;;;;;;;9.35;7.30;;;;;;;;;;4992284;28;94238;-75
2022/04/12 02:15:27;;;;;;;9.13;7.70;;;;;;;;;;4999559;28;92512;-75
2022/04/12 02:17:53;;;;;;;8.30;7.40;;;;;;;;;;4993533;28;93215;-75
2022/04/12 02:20:19;;;;;;;7.30;6.50;;;;;;;;;;4995182;28;94508;-75
2022/04/12 02:22:46;;;;;;;8.48;7.35;;;;;;;;;;4992483;28;92495;-75
2022/04/12 02:25:12;;;;;;;8.48;7.65;;;;;;;;;;5001811;28;95375;-75
2022/04/12 02:27:38;;;;;;;9.68;7.57;;;;;;;;;;5011766;28;94339;-75
2022/04/12 02:30:06;;;;;;;9.73;7.43;;;;;;;;;;5014382;28;92508;-75
2022/04/12 02:32:32;;;;;;;9.88;6.55;;;;;;;;;;5012258;28;94397;-75
2022/04/12 02:35:00;;;;;;;7.82;6.93;;;;;;;;;;5010348;28;92484;-75
2022/04/12 02:37:27;;;;;;;10.23;6.80;;;;;;;;;;5012489;28;93824;-75
2022/04/12 02:39:53;;;;;;;8.65;6.97;;;;;;;;;;5011168;28;94081;-75
2022/04/12 02:42:20;;;;;;;12.43;7.55;;;;;;;;;;5012451;28;91688;-75
2022/04/12 02:44:46;;;;;;;8.38;7.32;;;;;;;;;;5011373;28;93883;-74
2022/04/12 02:47:12;;;;;;;8.45;7.65;;;;;;;;;;5012264;28;94253;-75
2022/04/12 02:49:39;;;;;;;9.52;8.27;;;;;;;;;;5008730;28;94940;-75
2022/04/12 02:52:05;;;;;;;7.60;7.00;;;;;;;;;;5018950;28;96294;-74
2022/04/12 02:54:31;;;;;;;8.95;7.32;;;;;;;;;;5013761;28;92505;-74
2022/04/12 02:56:58;;;;;;;8.38;6.95;;;;;;;;;;5015718;28;92833;-74
2022/04/12 02:59:24;;;;;;;8.95;8.00;;;;;;;;;;5014137;28;94224;-74
2022/04/12 03:01:51;;;;;;;12.15;8.10;;;;;;;;;;5015916;28;93327;-74
2022/04/12 03:04:17;;;;;;;9.70;6.90;;;;;;;;;;5013887;28;93224;-74
2022/04/12 03:06:44;;;;;;;9.73;7.60;;;;;;;;;;5015421;28;92496;-74
2022/04/12 03:09:10;;;;;;;7.75;6.95;;;;;;;;;;5013081;28;92724;-74
2022/04/12 03:11:38;;;;;;;8.50;7.35;;;;;;;;;;4996318;28;94207;-74
2022/04/12 03:14:05;;;;;;;7.70;6.72;;;;;;;;;;4996803;28;94849;-75
2022/04/12 03:16:31;;;;;;;9.02;6.53;;;;;;;;;;4999792;28;96309;-75
2022/04/12 03:18:58;;;;;;;9.75;7.03;;;;;;;;;;4995300;28;94042;-75
2022/04/12 03:21:24;;;;;;;7.82;7.13;;;;;;;;;;5009202;28;92916;-75
2022/04/12 03:23:50;;;;;;;8.32;7.38;;;;;;;;;;5014168;28;93494;-75
2022/04/12 03:26:17;;;;;;;10.23;7.38;;;;;;;;;;5015076;28;93134;-75
2022/04/12 03:28:43;;;;;;;11.38;7.90;;;;;;;;;;5013823;28;92431;-75
2022/04/12 03:31:09;;;;;;;8.32;6.53;;;;;;;;;;5014295;28;93970;-75
2022/04/12 03:33:36;;;;;;;8.48;6.28;;;;;;;;;;5013490;28;94088;-75
2022/04/12 03:36:03;;;;;;;9.45;7.18;;;;;;;;;;5018642;28;92398;-75
2022/04/12 03:38:29;;;;;;;11.25;7.72;;;;;;;;;;5012605;28;96561;-75
2022/04/12 03:40:58;;;;;;;7.93;7.10;;;;;;;;;;5013784;28;93276;-75
2022/04/12 03:43:25;;;;;;;7.80;6.82;;;;;;;;;;5013390;28;93958;-75
2022/04/12 03:45:51;;;;;;;8.90;7.97;;;;;;;;;;5013261;28;93971;-75
2022/04/12 03:48:18;;;;;;;8.15;7.20;;;;;;;;;;5013621;28;92498;-75
2022/04/12 03:50:44;;;;;;;12.43;7.85;;;;;;;;;;5014969;28;94041;-74
2022/04/12 03:53:10;;;;;;;9.35;6.70;;;;;;;;;;5014194;28;94343;-75
2022/04/12 03:55:39;;;;;;;10.27;7.00;;;;;;;;;;5013670;28;91795;-75
2022/04/12 03:58:06;;;;;;;9.93;7.65;;;;;;;;;;5017990;28;93614;-75
2022/04/12 04:00:33;;;;;;;8.27;7.40;;;;;;;;;;5010581;28;92699;-75
2022/04/12 04:03:00;;;;;;;9.95;7.93;;;;;;;;;;5012603;28;94804;-74
2022/04/12 04:05:26;;;;;;;11.55;9.02;;;;;;;;;;5012669;28;94101;-75
2022/04/12 04:07:53;;;;;;;10.23;7.47;;;;;;;;;;5014574;28;93006;-75
2022/04/12 04:10:20;;;;;;;10.32;8.48;;;;;;;;;;5000188;28;94024;-75
2022/04/12 04:12:46;;;;;;;15.05;9.30;;;;;;;;;;4994009;28;93107;-74
2022/04/12 04:15:14;;;;;;;12.13;8.48;;;;;;;;;;5005921;28;92624;-74
2022/04/12 04:17:43;;;;;;;11.45;9.48;;;;;;;;;;4997464;28;93390;-74
2022/04/12 04:20:10;;;;;;;7.95;7.25;;;;;;;;;;5008374;28;93177;-74
2022/04/12 04:22:37;;;;;;;13.55;8.15;;;;;;;;;;5014314;28;93216;-74
2022/04/12 04:25:03;;;;;;;9.88;7.47;;;;;;;;;;5013023;28;94277;-74
2022/04/12 04:27:32;;;;;;;7.15;6.40;;;;;;;;;;5011821;28;95052;-74
2022/04/12 04:29:59;;;;;;;7.32;6.63;;;;;;;;;;5013004;28;96313;-74
2022/04/12 04:32:25;;;;;;;12.10;8.10;;;;;;;;;;5012182;28;94703;-74
2022/04/12 04:34:52;;;;;;;10.60;7.00;;;;;;;;;;5012665;28;92735;-74
2022/04/12 04:37:18;;;;;;;10.82;7.75;;;;;;;;;;5014514;28;94191;-74
2022/04/12 04:39:45;;;;;;;8.25;7.50;;;;;;;;;;5015207;28;94456;-74
2022/04/12 04:42:11;;;;;;;8.10;7.30;;;;;;;;;;5012424;28;94219;-74
2022/04/12 04:44:37;;;;;;;7.25;6.55;;;;;;;;;;5013046;28;93439;-74
2022/04/12 04:47:04;;;;;;;7.43;6.82;;;;;;;;;;5014138;28;92832;-74
2022/04/12 04:49:30;;;;;;;8.23;7.05;;;;;;;;;;5008361;28;94004;-74
2022/04/12 04:51:57;;;;;;;10.88;6.82;;;;;;;;;;5010042;28;96690;-74
2022/04/12 04:54:23;;;;;;;6.93;6.32;;;;;;;;;;5012048;28;92478;-74
2022/04/12 04:56:50;;;;;;;7.32;6.60;;;;;;;;;;5013399;28;93735;-74
2022/04/12 04:59:17;;;;;;;8.13;6.63;;;;;;;;;;5012753;28;93577;-74
2022/04/12 05:01:43;;;;;;;6.93;6.22;;;;;;;;;;5014362;28;92523;-74
2022/04/12 05:04:10;;;;;;;9.55;6.78;;;;;;;;;;4994392;28;94166;-74
2022/04/12 05:06:36;;;;;;;7.30;6.35;;;;;;;;;;4994007;28;93258;-74
2022/04/12 05:09:03;;;;;;;7.32;6.25;;;;;;;;;;4996632;28;93920;-74
2022/04/12 05:11:31;;;;;;;9.98;6.65;;;;;;;;;;5011981;28;94550;-74
2022/04/12 05:13:57;;;;;;;8.32;6.72;;;;;;;;;;5011248;28;92567;-74
2022/04/12 05:16:24;;;;;;;7.78;6.97;;;;;;;;;;4998178;28;94823;-73
2022/04/12 05:18:51;;;;;;;8.18;7.13;;;;;;;;;;4993928;28;94575;-74
2022/04/12 05:21:18;;;;;;;6.78;6.13;;;;;;;;;;5010119;28;92498;-74
2022/04/12 05:23:44;;;;;;;13.65;7.47;;;;;;;;;;5000653;28;95309;-74
2022/04/12 05:26:11;;;;;;;8.77;6.47;;;;;;;;;;5000008;28;92516;-74
2022/04/12 05:28:43;;;;;;;;;;;;;;;;;;4993747;28;94066;-74
2022/04/12 05:31:09;;;;;;;13.30;7.30;;;;;;;;;;4996765;28;123802;-74
2022/04/12 05:33:36;;;;;;;11.07;7.43;;;;;;;;;;5000440;28;93736;-74
2022/04/12 05:36:03;;;;;;;10.63;6.97;;;;;;;;;;5002580;28;93213;-74
2022/04/12 05:38:29;;;;;;;7.47;6.65;;;;;;;;;;4995964;28;94133;-74
2022/04/12 05:40:56;;;;;;;6.78;6.18;;;;;;;;;;4993303;28;94947;-73
2022/04/12 05:43:22;;;;;;;6.70;6.07;;;;;;;;;;4993043;28;95596;-74
2022/04/12 05:45:48;;;;;;;14.95;7.05;;;;;;;;;;4997869;28;93442;-73
2022/04/12 05:48:14;;;;;;;10.40;6.82;;;;;;;;;;4993633;28;94369;-73
2022/04/12 05:50:41;;;;;;;8.60;6.93;;;;;;;;;;4992635;28;94258;-73
2022/04/12 05:53:07;;;;;;;7.43;6.47;;;;;;;;;;4992997;28;92499;-73
2022/04/12 05:55:34;;;;;;;7.35;6.65;;;;;;;;;;4993584;28;93843;-72
2022/04/12 05:58:03;;;;;;;11.18;7.55;;;;;;;;;;4993273;28;92874;-72
2022/04/12 06:00:30;;;;;;;9.65;7.43;;;;;;;;;;4992935;28;92514;-73
2022/04/12 06:02:57;;;;;;;9.50;6.78;;;;;;;;;;4993066;28;92907;-73
2022/04/12 06:05:24;;;;;;;14.48;7.05;;;;;;;;;;4988597;28;95912;-73
2022/04/12 06:07:51;;;;;;;7.35;6.65;;;;;;;;;;4993576;28;92654;-73
2022/04/12 06:10:18;;;;;;;6.45;5.80;;;;;;;;;;4992912;28;94335;-73
2022/04/12 06:12:45;;;;;;;6.93;6.22;;;;;;;;;;4991994;28;92546;-73
2022/04/12 06:15:11;;;;;;;8.75;7.13;;;;;;;;;;4989535;28;94338;-73
2022/04/12 06:17:38;;;;;;;7.00;6.30;;;;;;;;;;4972624;28;93159;-73
2022/04/12 06:20:09;;;;;;;7.70;6.25;;;;;;;;;;4972527;28;92918;-72
2022/04/12 06:22:36;;;;;;;12.77;7.15;;;;;;;;;;4973420;28;93250;-72
2022/04/12 06:25:03;;;;;;;8.98;7.13;;;;;;;;;;4972903;28;93303;-72
2022/04/12 06:27:50;;;;;;;8.13;6.30;;;;;;;;;;4976355;28;92440;-72
2022/04/12 06:30:21;;;;;;;6.53;6.03;;;;;;;;;;4971143;28;96597;-72
2022/04/12 06:32:47;;;;;;;11.35;6.88;;;;;;;;;;4973197;28;92493;-72
2022/04/12 06:35:14;;;;;;;7.78;6.78;;;;;;;;;;4972770;28;93949;-73
2022/04/12 06:37:41;;;;;;;9.60;5.70;;;;;;;;;;4972618;28;94405;-73
2022/04/12 06:40:09;;;;;;;10.77;5.53;;;;;;;;;;4972203;28;92500;-74
2022/04/12 06:42:36;;;;;;;8.05;6.40;;;;;;;;;;4972447;28;93950;-72
2022/04/12 06:45:05;;;;;;;8.32;6.30;;;;;;;;;;4972558;28;93621;-72
2022/04/12 06:47:33;;;;;;;9.00;6.55;;;;;;;;;;4972483;28;91775;-72
2022/04/12 06:50:00;;;;;;;7.15;6.43;;;;;;;;;;4975818;28;93220;-72
2022/04/12 06:52:26;;;;;;;11.10;6.88;;;;;;;;;;4972536;28;92444;-72
2022/04/12 06:54:52;;;;;;;7.50;6.57;;;;;;;;;;4981724;28;95033;-72
2022/04/12 06:57:19;;;;;;;10.48;6.35;;;;;;;;;;4980473;28;95403;-72
2022/04/12 06:59:45;;;;;;;14.13;7.40;;;;;;;;;;4972468;28;92849;-71
2022/04/12 07:02:12;;;;;;;7.18;6.43;;;;;;;;;;4990818;28;93714;-72
2022/04/12 07:04:38;;;;;;;6.45;5.90;;;;;;;;;;4991892;28;93398;-71
2022/04/12 07:07:05;;;;;;;7.68;6.05;;;;;;;;;;4992117;28;93434;-72
2022/04/12 07:09:31;;;;;;;8.07;5.75;;;;;;;;;;4991472;28;92840;-72
2022/04/12 07:11:58;;;;;;;8.18;5.22;;;;;;;;;;4995702;28;93432;-72
2022/04/12 07:14:25;;;;;;;7.35;6.65;;;;;;;;;;4991983;28;92479;-72
2022/04/12 07:16:51;;;;;;;10.57;7.10;;;;;;;;;;4991280;28;94138;-72
2022/04/12 07:19:17;;;;;;;10.43;7.15;;;;;;;;;;4990752;28;94829;-72
2022/04/12 07:21:44;;;;;;;7.78;6.25;;;;;;;;;;4991718;28;96347;-73
2022/04/12 07:24:10;;;;;;;7.03;6.43;;;;;;;;;;4991181;28;93479;-72
2022/04/12 07:26:37;;;;;;;9.13;6.32;;;;;;;;;;4991669;28;92683;-72
2022/04/12 07:29:03;;;;;;;10.27;5.72;;;;;;;;;;4989672;28;92844;-72
2022/04/12 07:31:30;;;;;;;8.13;6.53;;;;;;;;;;4996728;28;94146;-73
2022/04/12 07:33:56;;;;;;;6.82;6.18;;;;;;;;;;4991693;28;93041;-74
2022/04/12 07:36:23;;;;;;;6.78;6.03;;;;;;;;;;4992346;28;93307;-73
2022/04/12 07:38:49;;;;;;;6.97;6.25;;;;;;;;;;4992327;28;92462;-73
2022/04/12 07:41:16;;;;;;;8.43;6.72;;;;;;;;;;4999629;28;92980;-73
2022/04/12 07:43:44;;;;;;;10.07;7.72;;;;;;;;;;5007044;28;96654;-74
2022/04/12 07:46:10;;;;;;;10.18;7.03;;;;;;;;;;5005637;28;93034;-73
2022/04/12 07:48:47;;;;;;;8.98;6.10;;;;;;;;;;5015360;28;93519;-74
2022/04/12 07:51:14;;;;;;;10.80;6.50;;;;;;;;;;4999544;28;93581;-76
2022/04/12 07:53:40;;;;;;;10.80;6.72;;;;;;;;;;5005049;28;94029;-73
2022/04/12 07:56:06;;;;;;;7.45;6.75;;;;;;;;;;4988958;28;93046;-75
2022/04/12 07:58:33;;;;;;;9.27;6.40;;;;;;;;;;5004102;28;92846;-76
2022/04/12 08:00:59;;;;;;;10.20;6.03;;;;;;;;;;4987982;28;91933;-76
2022/04/12 08:03:26;;;;;;;8.10;7.00;;;;;;;;;;4984790;28;94190;-76
2022/04/12 08:05:52;;;;;;;11.02;7.68;;;;;;;;;;4981801;28;94224;-76
2022/04/12 08:08:19;;;;;;;12.07;6.78;;;;;;;;;;4984116;28;95701;-79
2022/04/12 08:10:45;;;;;;;10.73;7.38;;;;;;;;;;4989764;28;94175;-74
2022/04/12 08:13:11;;;;;;;8.02;6.72;;;;;;;;;;4985115;28;92591;-74
2022/04/12 08:15:38;;;;;;;15.65;6.07;;;;;;;;;;5016836;28;93848;-73
2022/04/12 08:18:05;;;;;;;7.43;6.63;;;;;;;;;;4999701;28;92462;-74
2022/04/12 08:20:31;;;;;;;10.77;6.10;;;;;;;;;;4988944;28;95553;-74
2022/04/12 08:22:58;;;;;;;10.60;7.15;;;;;;;;;;4985262;28;94357;-74
2022/04/12 08:25:25;;;;;;;13.07;6.78;;;;;;;;;;4987129;28;93328;-73
2022/04/12 08:27:51;;;;;;;9.82;6.35;;;;;;;;;;4991725;28;93647;-72
2022/04/12 08:30:18;;;;;;;6.95;6.20;;;;;;;;;;4987522;28;93336;-73
2022/04/12 08:32:45;;;;;;;12.52;5.85;;;;;;;;;;4987611;28;95758;-73
2022/04/12 08:35:11;;;;;;;8.05;6.38;;;;;;;;;;4990919;28;94265;-73
2022/04/12 08:37:38;;;;;;;9.60;5.90;;;;;;;;;;5016999;28;94179;-74
2022/04/12 08:40:04;;;;;;;11.90;6.60;;;;;;;;;;5005035;28;94048;-73
2022/04/12 08:42:31;;;;;;;7.07;6.38;;;;;;;;;;5011928;28;93104;-72
2022/04/12 08:44:57;;;;;;;8.23;5.65;;;;;;;;;;5008720;28;92575;-72
2022/04/12 08:47:24;;;;;;;8.70;6.63;;;;;;;;;;5006846;28;94008;-71
2022/04/12 08:49:50;;;;;;;7.82;6.18;;;;;;;;;;4974704;28;93327;-72
2022/04/12 08:52:17;;;;;;;6.03;5.53;;;;;;;;;;5005959;28;92509;-73
2022/04/12 08:54:44;;;;;;;7.25;6.07;;;;;;;;;;5012968;28;93932;-73
2022/04/12 08:57:11;;;;;;;6.60;6.00;;;;;;;;;;5006829;28;96600;-73
2022/04/12 08:59:37;;;;;;;9.32;5.05;;;;;;;;;;5015699;28;92965;-71
2022/04/12 09:02:07;;;;;;;6.30;5.70;;;;;;;;;;5011224;28;94180;-71
2022/04/12 09:04:34;;;;;;;8.65;6.57;;;;;;;;;;5001683;28;92595;-72
2022/04/12 09:07:00;;;;;;;11.13;5.88;;;;;;;;;;4997669;28;93972;-70
2022/04/12 09:09:30;;;;;;;6.60;5.80;;;;;;;;;;5002977;28;94287;-73
2022/04/12 09:11:58;;;;;;;9.38;6.10;;;;;;;;;;4995388;28;93047;-73
2022/04/12 09:14:34;;;;;;;6.45;5.40;;;;;;;;;;4993337;28;93108;-73
2022/04/12 09:17:01;;;;;;;9.27;5.70;;;;;;;;;;4992835;28;93866;-73
2022/04/12 09:19:44;;;;;;;7.68;6.20;;;;;;;;;;4993212;28;92493;-73
2022/04/12 09:22:22;;;;;;;8.20;5.95;;;;;;;;;;4994909;28;94884;-73
2022/04/12 09:24:54;;;;;;;7.10;5.18;;;;;;;;;;4993594;28;92459;-73
2022/04/12 09:27:21;;;;;;;10.23;5.78;;;;;;;;;;4993312;28;93143;-73
2022/04/12 09:29:49;;;;;;;16.85;6.00;;;;;;;;;;4992695;28;94244;-73
2022/04/12 09:32:18;;;;;;;9.77;5.43;;;;;;;;;;4993471;28;92475;-73
2022/04/12 09:34:45;;;;;;;7.05;5.60;;;;;;;;;;4993167;28;94053;-73
2022/04/12 09:37:28;;;;;;;6.15;5.65;;;;;;;;;;4992619;28;94367;-73
2022/04/12 09:40:02;;;;;;;9.43;5.65;;;;;;;;;;4993884;28;91757;-73
2022/04/12 09:42:50;;;;;;;6.35;5.45;;;;;;;;;;4993149;28;93112;-73
2022/04/12 09:45:18;;;;;;;9.70;5.72;;;;;;;;;;4995377;28;94188;-73
2022/04/12 09:47:46;;;;;;;9.32;5.28;;;;;;;;;;4991470;28;94888;-73
2022/04/12 09:50:32;;;;;;;6.47;5.30;;;;;;;;;;4992075;28;94157;-73
2022/04/12 09:53:06;;;;;;;6.80;5.90;;;;;;;;;;4993599;28;92593;-73
2022/04/12 09:55:34;;;;;;;7.72;5.22;;;;;;;;;;4992750;28;93970;-73
2022/04/12 09:58:12;;;;;;;6.82;4.72;;;;;;;;;;4992569;28;93256;-73
2022/04/12 10:00:39;;;;;;;5.95;5.35;;;;;;;;;;4991934;28;92839;-73
2022/04/12 10:03:07;;;;;;;10.00;5.45;;;;;;;;;;4992937;28;92440;-73
2022/04/12 10:05:34;;;;;;;8.80;5.55;;;;;;;;;;4992129;28;93966;-73
2022/04/12 10:08:01;;;;;;;7.47;5.28;;;;;;;;;;4995898;28;92881;-73
2022/04/12 10:10:28;;;;;;;7.38;5.25;;;;;;;;;;4992297;28;94145;-73
2022/04/12 10:12:57;;;;;;;7.30;4.45;;;;;;;;;;4990310;28;95295;-73
2022/04/12 10:15:25;;;;;;;6.22;5.10;;;;;;;;;;4992254;28;96351;-73
2022/04/12 10:17:52;;;;;;;10.32;6.60;;;;;;;;;;4992932;28;93699;-74
2022/04/12 10:20:18;;;;;;;6.05;5.45;;;;;;;;;;4992271;28;92477;-73
2022/04/12 10:22:46;;;;;;;6.32;5.38;;;;;;;;;;4992791;28;93071;-74
2022/04/12 10:25:16;;;;;;;6.78;5.43;;;;;;;;;;4991735;28;94175;-73
2022/04/12 10:27:43;;;;;;;12.95;5.50;;;;;;;;;;4995346;28;92508;-74
2022/04/12 10:30:15;;;;;;;6.20;5.25;;;;;;;;;;4993228;28;92402;-74
2022/04/12 10:33:00;;;;;;;14.52;6.28;;;;;;;;;;4991744;28;92727;-72
2022/04/12 10:35:47;;;;;;;9.10;5.45;;;;;;;;;;4992887;28;93973;-72
2022/04/12 10:38:17;;;;;;;6.63;5.15;;;;;;;;;;4980777;28;96638;-72
2022/04/12 10:40:46;;;;;;;5.80;5.35;;;;;;;;;;4992068;28;92544;-72
2022/04/12 10:43:13;;;;;;;8.60;5.15;;;;;;;;;;4992943;28;93143;-72
2022/04/12 10:45:46;;;;;;;4.88;4.35;;;;;;;;;;4992736;28;94228;-72
2022/04/12 10:48:19;;;;;;;6.55;4.50;;;;;;;;;;4992088;28;92518;-72
2022/04/12 10:50:46;;;;;;;10.00;5.55;;;;;;;;;;4995273;28;93813;-72
2022/04/12 10:53:13;;;;;;;5.07;4.38;;;;;;;;;;4992683;28;92475;-73
2022/04/12 10:55:40;;;;;;;7.68;4.93;;;;;;;;;;4992230;28;93893;-73
2022/04/12 10:58:27;;;;;;;6.80;5.03;;;;;;;;;;4992643;28;93749;-72
2022/04/12 11:00:53;;;;;;;5.55;4.93;;;;;;;;;;4991999;28;92488;-72
2022/04/12 11:03:25;;;;;;;7.72;5.65;;;;;;;;;;4990951;28;94873;-73
2022/04/12 11:05:54;;;;;;;5.63;5.10;;;;;;;;;;4992280;28;94827;-73
2022/04/12 11:08:20;;;;;;;14.35;5.40;;;;;;;;;;4991260;28;92569;-73
2022/04/12 11:10:54;;;;;;;11.00;5.10;;;;;;;;;;4992493;28;93481;-73
2022/04/12 11:13:21;;;;;;;5.65;5.03;;;;;;;;;;4998861;28;94175;-73
2022/04/12 11:15:54;;;;;;;9.05;5.20;;;;;;;;;;4995295;28;92838;-73
2022/04/12 11:18:21;;;;;;;8.82;4.43;;;;;;;;;;4995605;28;93494;-73
2022/04/12 11:21:00;;;;;;;8.88;5.57;;;;;;;;;;4996157;28;92836;-73
2022/04/12 11:23:46;;;;;;;8.05;4.82;;;;;;;;;;4995074;28;93291;-73
2022/04/12 11:26:31;;;;;;;8.30;4.75;;;;;;;;;;4995248;28;94060;-73
2022/04/12 11:28:59;;;;;;;7.13;5.28;;;;;;;;;;4993347;28;94892;-73
2022/04/12 11:31:26;;;;;;;7.53;4.93;;;;;;;;;;4995874;28;95407;-73
2022/04/12 11:33:53;;;;;;;5.85;4.82;;;;;;;;;;4995657;28;93317;-73
2022/04/12 11:36:19;;;;;;;11.30;5.90;;;;;;;;;;4998022;28;92465;-73
2022/04/12 11:38:46;;;;;;;5.75;4.72;;;;;;;;;;4994950;28;94658;-73
2022/04/12 11:41:14;;;;;;;8.95;6.03;;;;;;;;;;4995401;28;92482;-73
2022/04/12 11:43:40;;;;;;;8.20;4.55;;;;;;;;;;4994970;28;92965;-73
2022/04/12 11:46:06;;;;;;;6.00;4.88;;;;;;;;;;4995720;28;93519;-73
2022/04/12 11:48:34;;;;;;;6.60;4.63;;;;;;;;;;4995197;28;92529;-73
2022/04/12 11:51:05;;;;;;;7.68;5.53;;;;;;;;;;4994780;28;93892;-73
2022/04/12 11:53:31;;;;;;;8.98;5.38;;;;;;;;;;4993259;28;96644;-74
2022/04/12 11:56:01;;;;;;;7.13;5.35;;;;;;;;;;4994886;28;92566;-74
2022/04/12 11:58:29;;;;;;;12.38;5.05;;;;;;;;;;4997447;28;93345;-74
2022/04/12 12:00:56;;;;;;;7.82;4.80;;;;;;;;;;4995201;28;92547;-74
2022/04/12 12:03:28;;;;;;;8.00;5.18;;;;;;;;;;4995009;28;94319;-74
2022/04/12 12:05:56;;;;;;;6.43;4.65;;;;;;;;;;4994236;28;94249;-74
2022/04/12 12:08:22;;;;;;;5.88;5.07;;;;;;;;;;4994401;28;92990;-74
2022/04/12 12:10:52;;;;;;;10.15;5.22;;;;;;;;;;4994854;28;93934;-71
2022/04/12 12:13:24;;;;;;;8.07;5.55;;;;;;;;;;4994793;28;93646;-72
2022/04/12 12:15:51;;;;;;;5.90;4.80;;;;;;;;;;4994755;28;92452;-74
2022/04/12 12:18:19;;;;;;;9.32;5.15;;;;;;;;;;4992914;28;94904;-74
2022/04/12 12:20:46;;;;;;;11.23;4.68;;;;;;;;;;4997681;28;94550;-72
2022/04/12 12:23:12;;;;;;;8.27;4.88;;;;;;;;;;4994043;28;94040;-73
2022/04/12 12:25:43;;;;;;;7.32;5.18;;;;;;;;;;4993323;28;94287;-72
2022/04/12 12:28:13;;;;;;;8.27;5.60;;;;;;;;;;4994648;28;92554;-72
2022/04/12 12:30:40;;;;;;;8.52;5.00;;;;;;;;;;4994395;28;93980;-72
2022/04/12 12:33:06;;;;;;;8.15;5.20;;;;;;;;;;4993938;28;94294;-72
2022/04/12 12:35:33;;;;;;;7.65;5.38;;;;;;;;;;4994567;28;93014;-72
2022/04/12 12:38:02;;;;;;;9.23;6.03;;;;;;;;;;4995034;28;92880;-73
2022/04/12 12:40:30;;;;;;;6.57;5.15;;;;;;;;;;4996496;28;94502;-73
2022/04/12 12:42:56;;;;;;;7.03;5.28;;;;;;;;;;4993123;28;95531;-73
2022/04/12 12:45:24;;;;;;;6.28;5.43;;;;;;;;;;4993645;28;94254;-72
2022/04/12 12:47:51;;;;;;;9.18;6.25;;;;;;;;;;4993755;28;92500;-73
2022/04/12 12:50:18;;;;;;;12.02;6.40;;;;;;;;;;4994272;28;94512;-73
2022/04/12 12:52:45;;;;;;;7.00;5.60;;;;;;;;;;4993717;28;94288;-73
2022/04/12 12:55:16;;;;;;;7.95;5.97;;;;;;;;;;4993528;28;93130;-73
2022/04/12 12:57:44;;;;;;;6.35;5.18;;;;;;;;;;4993563;28;93419;-73
2022/04/12 13:00:12;;;;;;;6.32;5.25;;;;;;;;;;4993872;28;93122;-74
2022/04/12 13:02:38;;;;;;;7.45;5.57;;;;;;;;;;4996750;28;92463;-73
2022/04/12 13:05:06;;;;;;;8.38;4.97;;;;;;;;;;4994066;28;94420;-73
2022/04/12 13:07:33;;;;;;;10.73;5.72;;;;;;;;;;4991352;28;95233;-73
2022/04/12 13:10:06;;;;;;;6.40;5.47;;;;;;;;;;4994524;28;96164;-73
2022/04/12 13:12:33;;;;;;;6.82;6.18;;;;;;;;;;4993985;28;92483;-73
2022/04/12 13:15:00;;;;;;;9.35;6.47;;;;;;;;;;4993253;28;92465;-73
2022/04/12 13:17:26;;;;;;;9.20;6.43;;;;;;;;;;4993825;28;93974;-73
2022/04/12 13:19:53;;;;;;;9.75;6.07;;;;;;;;;;4993770;28;93560;-73
2022/04/12 13:22:20;;;;;;;8.25;6.03;;;;;;;;;;4993182;28;92922;-72
2022/04/12 13:24:46;;;;;;;8.35;6.40;;;;;;;;;;4997151;28;93851;-72
2022/04/12 13:27:12;;;;;;;9.50;8.05;;;;;;;;;;4993745;28;92435;-72
2022/04/12 13:29:39;;;;;;;8.52;7.05;;;;;;;;;;4992768;28;93885;-72
2022/04/12 13:32:05;;;;;;;12.05;7.18;;;;;;;;;;4992013;28;96609;-72
2022/04/12 13:34:33;;;;;;;8.38;7.38;;;;;;;;;;4992272;28;92507;-72
2022/04/12 13:36:59;;;;;;;9.75;6.55;;;;;;;;;;4993017;28;93983;-73
2022/04/12 13:39:26;;;;;;;8.60;6.60;;;;;;;;;;4993250;28;94526;-73
2022/04/12 13:41:52;;;;;;;13.00;6.65;;;;;;;;;;4993465;28;92461;-73
2022/04/12 13:44:19;;;;;;;9.50;7.40;;;;;;;;;;4993131;28;93023;-73
2022/04/12 13:47:04;;;;;;;12.17;7.70;;;;;;;;;;4996421;28;93329;-72
2022/04/12 13:49:31;;;;;;;12.85;7.13;;;;;;;;;;4993016;28;93978;-72
2022/04/12 13:51:58;;;;;;;9.15;7.00;;;;;;;;;;4993042;28;94154;-72
2022/04/12 13:54:26;;;;;;;12.35;7.38;;;;;;;;;;4993237;28;92949;-73
2022/04/12 13:56:53;;;;;;;11.30;7.40;;;;;;;;;;4991576;28;95890;-73
2022/04/12 13:59:19;;;;;;;9.00;6.38;;;;;;;;;;4993255;28;93699;-72
2022/04/12 14:01:48;;;;;;;12.25;7.38;;;;;;;;;;4993298;28;92434;-73
2022/04/12 14:04:15;;;;;;;8.55;7.38;;;;;;;;;;4992595;28;93934;-73
2022/04/12 14:06:41;;;;;;;10.88;8.60;;;;;;;;;;4991970;28;93599;-73
2022/04/12 14:09:08;;;;;;;16.45;7.07;;;;;;;;;;4996279;28;93023;-73
2022/04/12 14:11:34;;;;;;;13.77;7.32;;;;;;;;;;4992219;28;94728;-73
2022/04/12 14:14:00;;;;;;;12.65;8.48;;;;;;;;;;4993804;28;92124;-74
2022/04/12 14:16:27;;;;;;;8.15;7.05;;;;;;;;;;4992832;28;93298;-73
2022/04/12 14:18:53;;;;;;;9.00;7.60;;;;;;;;;;4992434;28;94042;-72
2022/04/12 14:21:20;;;;;;;16.80;8.05;;;;;;;;;;4991256;28;94941;-73
2022/04/12 14:23:46;;;;;;;15.98;8.07;;;;;;;;;;4992773;28;95464;-73
2022/04/12 14:26:13;;;;;;;10.75;7.63;;;;;;;;;;4992380;28;93886;-72
2022/04/12 14:28:40;;;;;;;21.02;7.50;;;;;;;;;;4992981;28;92514;-72
2022/04/12 14:31:09;;;;;;;13.98;7.40;;;;;;;;;;4995816;28;93259;-72
2022/04/12 14:33:35;;;;;;;14.10;8.00;;;;;;;;;;4992201;28;92943;-73
2022/04/12 14:36:08;;;;;;;12.45;6.97;;;;;;;;;;4992996;28;92875;-73
2022/04/12 14:38:36;;;;;;;11.20;7.68;;;;;;;;;;4992176;28;93516;-73
2022/04/12 14:41:03;;;;;;;11.93;7.80;;;;;;;;;;4992641;28;92425;-73
2022/04/12 14:43:29;;;;;;;10.98;7.35;;;;;;;;;;4992597;28;93950;-73